Meteorología y climatología de Navarra
Datos de la estación - Meteo Navarra

Estación de Yesa GN

Altitud 487 m.


Datos desde el 07/12/2018 hasta el 08/12/2018 en horario solar
Los datos son PROVISIONALES

Anterior Página 1 de 1 Siguiente Descargar: Formato para Excel 2000 o superior   Formato csv   Formato para OpenOffice Calc
Fecha Temperatura Humedad relativa Radiación global Insolación Precipitación Velocidad viento 10 m Velocidad viento 10 m Dirección viento 10 m
ºC % W/m² s l/m² m/s km/h º
07/12/2018 0:00 6.7 81 0.0 0 0.0 2.5 9.1 114
07/12/2018 0:10 6.4 82 0.0 0 0.0 3.0 10.6 113
07/12/2018 0:20 6.3 82 0.0 0 0.0 2.9 10.5 107
07/12/2018 0:30 6.1 83 0.0 0 0.0 2.9 10.4 104
07/12/2018 0:40 6.0 84 0.0 0 0.0 3.1 11.0 103
07/12/2018 0:50 5.6 85 0.0 0 0.0 2.5 8.9 99
07/12/2018 1:00 5.3 86 0.0 0 0.0 2.2 8.0 91
07/12/2018 1:10 5.1 86 0.0 0 0.0 1.8 6.5 99
07/12/2018 1:20 5.0 86 0.0 0 0.0 2.3 8.2 91
07/12/2018 1:30 5.0 86 0.0 0 0.0 2.7 9.7 98
07/12/2018 1:40 4.9 85 0.0 0 0.0 3.0 10.9 105
07/12/2018 1:50 4.8 86 0.0 0 0.0 2.9 10.5 103
07/12/2018 2:00 4.7 88 0.0 0 0.0 2.8 10.2 97
07/12/2018 2:10 4.6 88 0.0 0 0.0 2.8 10.0 91
07/12/2018 2:20 4.3 88 0.0 0 0.0 3.2 11.4 96
07/12/2018 2:30 4.3 89 0.0 0 0.0 3.1 11.0 101
07/12/2018 2:40 4.3 89 0.0 0 0.0 3.2 11.7 100
07/12/2018 2:50 4.1 90 0.0 0 0.0 3.1 11.0 97
07/12/2018 3:00 4.0 90 0.0 0 0.0 3.0 10.8 101
07/12/2018 3:10 3.9 91 0.0 0 0.0 4.0 14.4 103
07/12/2018 3:20 3.8 91 0.0 0 0.0 2.9 10.5 112
07/12/2018 3:30 3.7 91 0.0 0 0.0 2.3 8.2 106
07/12/2018 3:40 3.4 93 0.0 0 0.0 2.8 10.0 104
07/12/2018 3:50 3.3 94 0.0 0 0.0 3.3 11.7 102
07/12/2018 4:00 3.1 93 0.0 0 0.0 3.1 11.0 104
07/12/2018 4:10 2.9 93 0.0 0 0.0 3.0 10.9 96
07/12/2018 4:20 2.8 94 0.0 0 0.0 3.3 11.9 99
07/12/2018 4:30 2.8 94 0.0 0 0.0 4.1 14.8 104
07/12/2018 4:40 2.9 93 0.0 0 0.0 4.2 15.3 103
07/12/2018 4:50 2.8 94 0.0 0 0.0 3.8 13.8 109
07/12/2018 5:00 2.6 94 0.0 0 0.0 4.0 14.5 103
07/12/2018 5:10 2.3 94 0.0 0 0.0 3.7 13.4 98
07/12/2018 5:20 2.3 96 0.0 0 0.0 4.0 14.3 95
07/12/2018 5:30 2.2 96 0.0 0 0.0 4.6 16.7 98
07/12/2018 5:40 2.1 96 0.0 0 0.0 4.3 15.3 98
07/12/2018 5:50 2.1 96 0.0 0 0.0 4.4 15.8 96
07/12/2018 6:00 1.8 96 0.0 0 0.0 4.3 15.6 98
07/12/2018 6:10 1.8 96 0.0 0 0.0 4.5 16.2 97
07/12/2018 6:20 1.7 96 0.0 0 0.0 4.6 16.6 98
07/12/2018 6:30 1.6 96 0.0 0 0.0 4.8 17.1 100
07/12/2018 6:40 1.5 96 0.0 0 0.0 3.1 11.1 108
07/12/2018 6:50 1.5 96 0.0 0 0.0 2.5 9.1 106
07/12/2018 7:00 1.4 96 0.0 0 0.0 3.3 11.9 108
07/12/2018 7:10 1.4 95 0.0 0 0.0 3.5 12.5 112
07/12/2018 7:20 1.5 96 0.0 0 0.0 3.7 13.2 108
07/12/2018 7:30 1.5 96 0.0 0 0.0 3.1 11.0 109
07/12/2018 7:40 1.4 95 0.0 0 0.0 2.9 10.5 107
07/12/2018 7:50 1.4 96 0.1 0 0.0 3.2 11.4 104
07/12/2018 8:00 1.3 96 15.2 0 0.0 2.9 10.5 105
07/12/2018 8:10 1.3 97 20.7 0 0.0 2.9 10.4 100
07/12/2018 8:20 1.3 98 25.7 0 0.0 2.9 10.3 101
07/12/2018 8:30 1.4 98 30.1 0 0.0 3.4 12.2 103
07/12/2018 8:40 1.3 97 33.6 0 0.0 2.9 10.3 105
07/12/2018 8:50 1.5 97 77.9 168 0.0 2.6 9.2 109
07/12/2018 9:00 2.0 96 190.4 554 0.0 2.5 8.8 112
07/12/2018 9:10 2.6 94 227.7 600 0.0 2.3 8.1 117
07/12/2018 9:20 3.2 92 246.8 600 0.0 1.8 6.3 123
07/12/2018 9:30 3.6 91 266.4 600 0.0 1.1 3.9 146
07/12/2018 9:40 4.1 88 285.9 600 0.0 1.3 4.8 158
07/12/2018 9:50 4.4 86 303.9 600 0.0 1.7 6.3 139
07/12/2018 10:00 4.6 86 322.3 600 0.0 2.3 8.2 120
07/12/2018 10:10 4.9 84 338.5 600 0.0 2.4 8.8 117
07/12/2018 10:20 4.9 83 353.0 600 0.0 2.0 7.3 144
07/12/2018 10:30 4.9 83 366.7 600 0.0 1.7 6.0 138
07/12/2018 10:40 5.1 82 379.8 600 0.0 1.8 6.3 134
07/12/2018 10:50 5.8 80 391.3 600 0.0 1.8 6.3 130
07/12/2018 11:00 6.3 78 401.1 600 0.0 1.6 5.9 129
07/12/2018 11:10 6.7 78 409.4 600 0.0 1.7 5.9 162
07/12/2018 11:20 6.7 77 415.5 600 0.0 1.6 5.8 141
07/12/2018 11:30 7.0 78 420.1 600 0.0 0.7 2.7 135
07/12/2018 11:40 7.9 76 422.8 600 0.0 0.8 2.7 173
07/12/2018 11:50 8.5 75 423.9 600 0.0 1.2 4.2 229
07/12/2018 12:00 8.7 75 425.1 600 0.0 1.0 3.6 240
07/12/2018 12:10 9.1 73 432.1 600 0.0 1.6 5.7 266
07/12/2018 12:20 8.9 73 396.5 600 0.0 1.1 3.8 286
07/12/2018 12:30 9.6 72 413.5 600 0.0 0.9 3.1 255
07/12/2018 12:40 9.7 71 407.6 600 0.0 1.6 5.8 266
07/12/2018 12:50 9.8 70 401.0 600 0.0 1.1 4.1 266
07/12/2018 13:00 10.3 70 392.3 600 0.0 1.3 4.6 236
07/12/2018 13:10 10.4 69 381.1 600 0.0 1.2 4.2 258
07/12/2018 13:20 10.3 69 370.7 600 0.0 1.2 4.2 270
07/12/2018 13:30 10.4 70 379.8 600 0.0 1.6 5.7 258
07/12/2018 13:40 10.8 69 443.3 600 0.0 1.8 6.3 274
07/12/2018 13:50 11.1 70 280.1 450 0.0 1.1 4.1 238
07/12/2018 14:00 11.3 69 165.2 214 0.0 1.4 5.1 303
07/12/2018 14:10 11.2 70 301.0 588 0.0 0.9 3.3 279
07/12/2018 14:20 11.5 70 294.5 600 0.0 0.9 3.2 286
07/12/2018 14:30 11.9 68 303.5 600 0.0 1.0 3.7 265
07/12/2018 14:40 11.6 68 238.3 600 0.0 1.1 3.8 273
07/12/2018 14:50 11.6 70 212.9 600 0.0 0.9 3.2 253
07/12/2018 15:00 11.5 70 193.8 600 0.0 0.9 3.1 249
07/12/2018 15:10 11.8 68 216.1 600 0.0 1.3 4.6 280
07/12/2018 15:20 11.8 68 126.1 354 0.0 1.1 3.9 223
07/12/2018 15:30 11.7 69 39.2 0 0.0 0.8 2.8 303
07/12/2018 15:40 11.2 69 38.1 0 0.0 0.8 3.0 325
07/12/2018 15:50 11.2 69 29.4 0 0.0 0.7 2.4 349
07/12/2018 16:00 11.2 68 19.7 0 0.0 1.9 6.8 133
07/12/2018 16:10 12.5 65 7.9 0 0.0 4.6 16.6 310
07/12/2018 16:20 12.9 66 0.0 0 0.0 3.5 12.5 297
07/12/2018 16:30 12.8 66 0.0 0 0.0 2.7 9.9 290
07/12/2018 16:40 12.9 67 0.0 0 0.0 3.5 12.6 289
07/12/2018 16:50 12.8 67 0.0 0 0.0 2.3 8.4 297
07/12/2018 17:00 12.7 69 0.0 0 0.0 3.2 11.7 301
07/12/2018 17:10 12.4 71 0.0 0 0.0 3.1 11.2 307
07/12/2018 17:20 12.2 72 0.0 0 0.0 2.6 9.4 311
07/12/2018 17:30 12.0 72 0.0 0 0.0 2.7 9.5 308
07/12/2018 17:40 11.7 74 0.0 0 0.0 2.6 9.5 302
07/12/2018 17:50 11.5 76 0.0 0 0.0 2.8 10.2 316
07/12/2018 18:00 11.4 78 0.0 0 0.0 2.3 8.2 298
07/12/2018 18:10 11.4 79 0.0 0 0.0 2.6 9.3 298
07/12/2018 18:20 11.3 81 0.0 0 0.0 3.7 13.2 311
07/12/2018 18:30 11.2 81 0.0 0 0.0 2.7 9.8 318
07/12/2018 18:40 11.4 82 0.0 0 0.0 3.5 12.5 325
07/12/2018 18:50 11.2 81 0.0 0 0.0 3.6 13.0 312
07/12/2018 19:00 11.5 79 0.0 0 0.0 4.1 14.7 302
07/12/2018 19:10 11.3 81 0.0 0 0.0 4.3 15.4 311
07/12/2018 19:20 11.3 81 0.0 0 0.0 4.6 16.4 320
07/12/2018 19:30 11.0 83 0.0 0 0.0 4.0 14.3 316
07/12/2018 19:40 11.2 82 0.0 0 0.0 4.2 14.9 312
07/12/2018 19:50 11.0 83 0.0 0 0.0 3.4 12.3 311
07/12/2018 20:00 10.9 84 0.0 0 0.0 3.1 11.0 297
07/12/2018 20:10 10.8 84 0.0 0 0.0 3.5 12.6 285
07/12/2018 20:20 11.0 80 0.0 0 0.0 3.5 12.5 294
07/12/2018 20:30 11.1 77 0.0 0 0.0 3.3 12.0 301
07/12/2018 20:40 11.1 77 0.0 0 0.0 3.6 13.0 289
07/12/2018 20:50 10.8 79 0.0 0 0.0 2.7 9.6 271
07/12/2018 21:00 10.6 78 0.0 0 0.0 3.6 13.0 278
07/12/2018 21:10 10.8 75 0.0 0 0.0 2.4 8.7 267
07/12/2018 21:20 10.7 73 0.0 0 0.0 2.6 9.2 263
07/12/2018 21:30 10.6 69 0.0 0 0.0 5.0 18.0 318
07/12/2018 21:40 10.3 68 0.0 0 0.0 3.4 12.1 295
07/12/2018 21:50 10.2 68 0.0 0 0.0 3.5 12.4 297
07/12/2018 22:00 10.1 68 0.0 0 0.0 2.6 9.5 309
07/12/2018 22:10 9.7 69 0.0 0 0.0 3.0 10.7 222
07/12/2018 22:20 9.9 68 0.0 0 0.0 2.9 10.4 239
07/12/2018 22:30 9.7 69 0.0 0 0.0 3.9 14.0 242
07/12/2018 22:40 9.8 69 0.0 0 0.0 2.8 10.1 249
07/12/2018 22:50 9.6 69 0.0 0 0.0 2.6 9.4 235
07/12/2018 23:00 9.6 70 0.0 0 0.0 2.8 10.0 275
07/12/2018 23:10 9.6 70 0.0 0 0.0 3.1 11.3 253
07/12/2018 23:20 9.6 70 0.0 0 0.0 3.1 11.1 251
07/12/2018 23:30 9.6 70 0.0 0 0.0 3.5 12.7 263
07/12/2018 23:40 9.5 70 0.0 0 0.0 2.5 9.1 272
07/12/2018 23:50 9.6 70 0.0 0 0.0 3.1 11.3 267
Anterior Página 1 de 1 Siguiente

NOTA: Tipo de datos según el color:
   - Valores diarios o 10 minutos correctos
   - Valores diarios calculados a partir de un número de datos 10 minutos menor que 144 y mayor que 120, o de un número de datos semihorarios menor que 48 y mayor que 40 (caso de las estaciones de Riegos de Navarra y del MARM)
   - Valores diez minutos estimados


Contacto        Enlaces        Aviso legal